createdAt,value
2017-09-19T16:33:19.216Z,53.20
2017-09-19T16:35:47.582Z,53.00
2017-09-19T16:38:15.922Z,52.90
2017-09-19T16:40:43.563Z,53.00
2017-09-19T16:43:11.140Z,53.00
2017-09-19T16:45:38.714Z,52.90
2017-09-19T16:48:06.379Z,52.90
2017-09-19T16:50:33.959Z,52.90
2017-09-19T16:53:01.556Z,53.40
2017-09-19T16:55:29.184Z,53.00
2017-09-19T16:57:57.162Z,53.10
2017-09-19T17:00:24.988Z,53.10
2017-09-19T17:02:52.624Z,53.10
2017-09-19T17:05:20.996Z,54.20
2017-09-19T17:07:48.567Z,53.20
2017-09-19T17:10:16.963Z,53.60
2017-09-19T17:12:45.343Z,53.70
2017-09-19T17:15:12.923Z,53.20
2017-09-19T17:17:42.219Z,53.80
2017-09-19T17:20:09.800Z,53.20
2017-09-19T17:22:37.419Z,53.10
2017-09-19T17:25:06.032Z,53.20
2017-09-19T17:27:33.934Z,53.10
2017-09-19T17:30:02.611Z,53.20
2017-09-19T17:32:30.943Z,53.20
2017-09-19T17:34:58.570Z,53.10
2017-09-19T17:37:27.162Z,53.20
2017-09-19T17:39:55.253Z,53.10
2017-09-19T17:42:22.855Z,53.10
2017-09-19T17:44:50.464Z,53.10
2017-09-19T17:47:25.952Z,53.20
2017-09-19T17:49:54.665Z,53.20
2017-09-19T17:52:22.305Z,53.10
2017-09-19T17:54:49.928Z,53.20
2017-09-19T17:57:17.932Z,53.20
2017-09-19T17:59:46.542Z,53.20
2017-09-19T18:02:15.063Z,53.20
2017-09-19T18:04:42.662Z,53.20
2017-09-19T18:07:10.267Z,53.10
2017-09-19T18:09:37.935Z,53.10
2017-09-19T18:12:06.088Z,53.10
2017-09-19T18:14:35.211Z,53.10
2017-09-19T18:17:02.909Z,53.10
2017-09-19T18:19:31.283Z,53.10
2017-09-19T18:21:59.292Z,53.20
2017-09-19T18:24:27.020Z,53.10
2017-09-19T18:26:55.771Z,53.20
2017-09-19T18:29:23.375Z,53.20
2017-09-19T18:31:51.605Z,53.20
2017-09-19T18:34:19.209Z,53.20
2017-09-19T18:36:46.859Z,53.20
2017-09-19T18:39:14.483Z,53.20
2017-09-19T18:41:42.485Z,53.20
2017-09-19T18:44:10.087Z,53.10
2017-09-19T18:46:38.578Z,53.10
2017-09-19T18:49:07.183Z,53.10
2017-09-19T18:51:35.367Z,53.10
2017-09-19T18:54:04.388Z,53.10
2017-09-19T18:56:32.047Z,53.00
2017-09-19T18:59:02.243Z,53.00
2017-09-19T19:01:30.917Z,53.00
2017-09-19T19:03:58.539Z,53.00
2017-09-19T19:06:28.362Z,53.00
2017-09-19T19:08:57.868Z,53.00
2017-09-19T19:11:27.680Z,53.00
2017-09-19T19:13:55.311Z,53.00
2017-09-19T19:16:23.436Z,53.10
2017-09-19T19:18:51.307Z,53.10
2017-09-19T19:21:19.482Z,53.10
2017-09-19T19:23:47.590Z,53.10
2017-09-19T19:26:16.886Z,53.10
2017-09-19T19:28:45.349Z,53.00
2017-09-19T19:31:14.198Z,53.10
2017-09-19T19:33:43.234Z,52.30
2017-09-19T19:36:12.184Z,51.90
2017-09-19T19:38:41.545Z,52.40
2017-09-19T19:41:09.863Z,52.50
2017-09-19T19:43:38.928Z,52.80
2017-09-19T19:46:07.659Z,52.80
2017-09-19T19:48:37.660Z,52.80
2017-09-19T19:51:05.804Z,52.90
2017-09-19T19:53:36.523Z,53.00
2017-09-19T19:56:04.841Z,51.90
2017-09-19T19:58:33.306Z,52.30
2017-09-19T20:01:02.152Z,52.50
2017-09-19T20:03:32.015Z,52.70
2017-09-19T20:06:00.990Z,52.00
2017-09-19T20:08:33.103Z,51.80
2017-09-19T20:13:36.614Z,52.60
2017-09-19T20:16:06.314Z,52.50
2017-09-19T20:18:53.088Z,52.70
2017-09-19T20:21:21.976Z,52.70
2017-09-19T20:23:50.660Z,52.70
2017-09-19T20:28:52.235Z,52.80
2017-09-19T20:31:21.501Z,53.00
2017-09-19T20:33:49.729Z,52.90
2017-09-19T20:36:17.787Z,52.90
2017-09-19T20:38:46.197Z,52.90
2017-09-19T20:41:15.703Z,52.70
2017-09-19T20:43:45.432Z,52.40
2017-09-19T20:46:14.225Z,52.80
2017-09-19T20:51:15.676Z,52.90
2017-09-19T20:53:45.947Z,52.90
2017-09-19T20:56:14.531Z,52.90
2017-09-19T20:58:42.811Z,52.90
2017-09-19T21:01:12.804Z,52.90
2017-09-19T21:03:48.207Z,52.90
2017-09-19T21:06:24.815Z,52.90
2017-09-19T21:08:59.532Z,52.90
2017-09-19T21:11:32.835Z,52.90
2017-09-19T21:14:10.398Z,53.20
2017-09-19T21:16:45.536Z,52.80
2017-09-19T21:19:29.470Z,52.80
2017-09-19T21:24:30.622Z,53.00
2017-09-19T21:32:36.758Z,53.10
2017-09-19T21:35:06.080Z,53.30
2017-09-19T21:37:34.815Z,53.20
2017-09-19T21:40:03.712Z,53.20
2017-09-19T21:42:32.868Z,53.20
2017-09-19T21:45:00.753Z,53.20
2017-09-19T21:47:28.991Z,53.30
2017-09-19T21:49:57.149Z,53.40
2017-09-19T21:52:24.797Z,53.40
2017-09-19T21:54:52.790Z,53.30
2017-09-19T21:57:20.409Z,53.40
2017-09-19T21:59:48.350Z,53.40
2017-09-19T22:02:15.949Z,53.30
2017-09-19T22:04:43.584Z,53.40
2017-09-19T22:07:11.603Z,53.50
2017-09-19T22:09:39.203Z,53.40
2017-09-19T22:12:06.807Z,53.50
2017-09-19T22:14:34.770Z,53.40
2017-09-19T22:17:02.387Z,53.50
2017-09-19T22:19:30.394Z,53.60
2017-09-19T22:21:58.032Z,53.50
2017-09-19T22:24:26.398Z,53.50
2017-09-19T22:26:53.993Z,53.60
2017-09-19T22:29:21.776Z,53.60
2017-09-19T22:31:49.367Z,53.60
2017-09-19T22:34:16.944Z,54.10
2017-09-19T22:36:44.566Z,53.60
2017-09-19T22:39:12.948Z,53.60
2017-09-19T22:41:40.550Z,53.60
2017-09-19T22:44:08.188Z,53.60
2017-09-19T22:46:35.792Z,53.60
2017-09-19T22:49:03.395Z,53.70
2017-09-19T22:51:31.746Z,53.70
2017-09-19T22:53:59.314Z,53.70
2017-09-19T22:56:26.878Z,53.70
2017-09-19T22:58:57.614Z,53.70
2017-09-19T23:01:25.190Z,53.80
2017-09-19T23:03:52.798Z,53.80
2017-09-19T23:06:20.426Z,53.80
2017-09-19T23:08:51.512Z,53.70
2017-09-19T23:11:19.877Z,53.70
2017-09-19T23:13:47.474Z,53.80
2017-09-19T23:16:15.054Z,53.80
2017-09-19T23:18:42.622Z,53.80
2017-09-19T23:21:10.245Z,53.80
2017-09-19T23:23:38.414Z,53.80
2017-09-19T23:26:06.006Z,53.80
2017-09-19T23:28:35.159Z,53.80
2017-09-19T23:31:02.754Z,53.80
2017-09-19T23:33:30.387Z,53.80
2017-09-19T23:35:58.010Z,53.90
2017-09-19T23:38:25.651Z,53.90
2017-09-19T23:40:53.253Z,53.90
2017-09-19T23:43:20.874Z,53.90
2017-09-19T23:45:48.632Z,54.00
2017-09-19T23:48:16.636Z,54.00
2017-09-19T23:50:44.663Z,53.80
2017-09-19T23:53:12.998Z,55.10
2017-09-19T23:55:40.562Z,54.00
2017-09-19T23:58:08.160Z,54.00
